Time;durP1;ratioP1;P1;durP2;ratioP2;P2;SDS_P1;SDS_P2;PMS_P1;PMS_P2;Temp;Humidity;BMP_temperature;BMP_pressure;BME280_temperature;BME280_humidity;BME280_pressure;Samples;Min_cycle;Max_cycle;Signal;HPM_P1;HPM_P2
2021/05/22 00:01:11;;;;;;;0.90;0.90;;;;;;;11.44;64.58;98938.27;233901;1174;115294;-67
2021/05/22 00:06:14;;;;;;;0.90;0.90;;;;;;;11.33;64.67;98922.45;232883;1174;116552;-67
2021/05/22 00:11:18;;;;;;;1.75;0.98;;;;;;;11.32;65.07;98923.52;233698;1174;115113;-66
2021/05/22 00:16:21;;;;;;;2.60;0.97;;;;;;;11.36;64.88;98903.26;234325;1174;115048;-67
2021/05/22 00:21:26;;;;;;;1.85;1.08;;;;;;;11.31;65.18;98903.26;233535;1174;116909;-67
2021/05/22 00:26:30;;;;;;;0.83;0.83;;;;;;;11.25;65.60;98904.29;233619;1171;115928;-66
2021/05/22 00:31:34;;;;;;;1.35;0.68;;;;;;;11.13;65.83;98902.62;233993;1174;115001;-66
2021/05/22 00:36:38;;;;;;;0.90;0.90;;;;;;;11.06;65.85;98904.70;233174;1174;114946;-67
2021/05/22 00:41:43;;;;;;;1.70;1.60;;;;;;;11.07;66.58;98903.64;232459;1174;115191;-67
2021/05/22 00:46:55;;;;;;;2.95;1.95;;;;;;;11.11;66.54;98904.73;232686;1174;115250;-67
2021/05/22 00:51:58;;;;;;;6.77;1.80;;;;;;;11.14;67.05;98906.89;232555;1174;115972;-69
2021/05/22 00:57:02;;;;;;;4.30;1.95;;;;;;;11.16;66.66;98905.83;232959;1174;115822;-67
2021/05/22 01:02:06;;;;;;;1.93;1.53;;;;;;;11.13;67.28;98907.95;232907;1174;115246;-68
2021/05/22 01:07:10;;;;;;;2.03;1.83;;;;;;;11.11;67.46;98917.27;232460;1170;114946;-66
2021/05/22 01:12:16;;;;;;;2.40;2.20;;;;;;;11.16;67.76;98921.84;232446;1174;115026;-70
2021/05/22 01:17:20;;;;;;;2.38;1.73;;;;;;;11.23;67.91;98928.56;232679;1174;115795;-69
2021/05/22 01:22:26;;;;;;;3.88;1.95;;;;;;;11.25;67.94;98920.30;232487;1174;115613;-68
2021/05/22 01:27:30;;;;;;;2.43;1.27;;;;;;;11.25;68.26;98918.44;232602;1174;115846;-67
2021/05/22 01:32:34;;;;;;;1.30;1.20;;;;;;;11.27;68.38;98923.51;233915;1174;115414;-68
2021/05/22 01:37:38;;;;;;;1.55;1.45;;;;;;;11.33;68.14;98911.78;232986;1174;115832;-68
2021/05/22 01:42:43;;;;;;;3.85;2.73;;;;;;;11.37;68.33;98903.00;233846;1174;115546;-68
2021/05/22 01:47:49;;;;;;;2.30;2.10;;;;;;;11.42;67.86;98902.22;232873;1174;115600;-67
2021/05/22 01:52:56;;;;;;;1.60;1.50;;;;;;;11.49;68.48;98889.45;232787;1174;117421;-67
2021/05/22 01:57:59;;;;;;;3.35;1.70;;;;;;;11.53;68.25;98869.19;235092;1174;116186;-66
2021/05/22 02:03:22;;;;;;;1.83;1.73;;;;;;;11.54;68.16;98870.80;235045;1168;115505;-65
2021/05/22 02:08:28;;;;;;;3.00;1.53;;;;;;;11.56;68.36;98884.68;235037;1168;115213;-65
2021/05/22 02:13:32;;;;;;;3.98;1.75;;;;;;;11.54;68.07;98881.47;233708;1174;115617;-69
2021/05/22 02:18:37;;;;;;;2.03;1.93;;;;;;;11.46;68.31;98871.29;233573;1174;116035;-68
2021/05/22 02:23:46;;;;;;;2.20;2.00;;;;;;;11.48;68.72;98871.83;232889;1174;139608;-68
2021/05/22 02:28:53;;;;;;;5.78;1.88;;;;;;;11.43;68.42;98874.48;232947;1174;115788;-66
2021/05/22 02:34:03;;;;;;;2.47;1.37;;;;;;;11.43;68.71;98874.48;232980;1173;115190;-66
2021/05/22 02:39:08;;;;;;;2.70;1.83;;;;;;;11.44;68.99;98871.55;232589;1174;115382;-65
2021/05/22 02:44:13;;;;;;;3.30;1.93;;;;;;;11.44;69.01;98866.21;233160;1174;115518;-67
2021/05/22 02:49:26;;;;;;;2.65;2.43;;;;;;;11.48;68.78;98869.16;232479;1174;115653;-68
2021/05/22 02:54:31;;;;;;;3.18;2.00;;;;;;;11.49;69.07;98860.09;232515;1174;115885;-67
2021/05/22 02:59:36;;;;;;;2.53;1.77;;;;;;;11.51;69.36;98870.52;232784;1174;115372;-67
2021/05/22 03:04:40;;;;;;;2.23;2.00;;;;;;;11.56;69.15;98884.68;232641;1174;115672;-67
2021/05/22 03:09:46;;;;;;;3.40;2.20;;;;;;;11.58;69.13;98898.57;232593;1174;115673;-66
2021/05/22 03:14:48;;;;;;;2.05;1.95;;;;;;;11.62;69.35;98904.16;232891;1174;115341;-67
2021/05/22 03:19:51;;;;;;;2.58;1.50;;;;;;;11.63;69.38;98903.09;233221;1174;115395;-66
2021/05/22 03:24:54;;;;;;;2.08;1.90;;;;;;;11.63;69.48;98913.78;232374;1171;114715;-68
2021/05/22 03:29:58;;;;;;;2.95;1.65;;;;;;;11.65;69.43;98914.32;233524;1174;114960;-67
2021/05/22 03:35:01;;;;;;;2.85;1.60;;;;;;;11.67;69.33;98906.86;233485;1174;118192;-67
2021/05/22 03:40:05;;;;;;;1.73;1.63;;;;;;;11.70;69.63;98919.69;232696;1174;114754;-68
2021/05/22 03:45:09;;;;;;;4.75;1.40;;;;;;;11.73;69.48;98909.28;234241;1174;115523;-69
2021/05/22 03:50:13;;;;;;;1.53;1.27;;;;;;;11.74;69.56;98905.55;232764;1174;116272;-68
2021/05/22 03:55:16;;;;;;;1.10;1.10;;;;;;;11.80;69.43;98911.75;233181;1174;116397;-69
2021/05/22 04:00:21;;;;;;;1.50;1.40;;;;;;;11.85;69.48;98906.42;232582;1174;115994;-67
2021/05/22 04:05:24;;;;;;;2.03;1.37;;;;;;;11.87;69.57;98908.84;232566;1174;115766;-67
2021/05/22 04:10:27;;;;;;;0.70;0.70;;;;;;;11.90;69.66;98905.64;233056;1174;116181;-68
2021/05/22 04:15:31;;;;;;;4.93;1.20;;;;;;;11.95;69.97;98918.98;233705;1174;116768;-68
2021/05/22 04:20:34;;;;;;;1.77;1.10;;;;;;;11.98;70.01;98929.14;232339;1174;116012;-68
2021/05/22 04:25:38;;;;;;;2.05;1.80;;;;;;;12.01;69.77;98912.59;233417;1174;115868;-67
2021/05/22 04:30:41;;;;;;;1.23;1.13;;;;;;;12.05;69.74;98919.02;233292;1168;115963;-67
2021/05/22 04:35:43;;;;;;;0.90;0.90;;;;;;;12.09;69.66;98920.09;232976;1174;115183;-69
2021/05/22 04:40:46;;;;;;;1.00;1.00;;;;;;;12.19;69.60;98898.75;233494;1174;115852;-68
2021/05/22 04:45:50;;;;;;;2.25;1.40;;;;;;;12.34;69.80;98890.73;232655;1174;115678;-67
2021/05/22 04:50:55;;;;;;;1.70;1.60;;;;;;;12.50;69.95;98906.80;232478;1174;115448;-67
2021/05/22 04:55:58;;;;;;;5.45;1.20;;;;;;;12.55;69.65;98914.79;232594;1169;115836;-67
2021/05/22 05:01:01;;;;;;;1.58;1.30;;;;;;;12.54;69.50;98889.92;232787;1176;116777;-67
2021/05/22 05:06:04;;;;;;;3.57;1.23;;;;;;;12.68;69.66;98906.24;232958;1174;115857;-67
2021/05/22 05:11:08;;;;;;;0.95;0.90;;;;;;;12.77;69.52;98899.30;233035;1174;115857;-68
2021/05/22 05:16:11;;;;;;;0.93;0.90;;;;;;;12.86;69.32;98913.70;232429;1174;117235;-68
2021/05/22 05:21:14;;;;;;;1.90;1.40;;;;;;;12.88;69.14;98930.28;232622;1176;116368;-68
2021/05/22 05:26:17;;;;;;;1.75;1.38;;;;;;;12.95;69.57;98912.09;232938;1174;116704;-68
2021/05/22 05:31:21;;;;;;;2.85;1.45;;;;;;;13.22;69.02;98908.32;233036;1174;117280;-69
2021/05/22 05:36:26;;;;;;;2.48;1.50;;;;;;;13.76;68.70;98919.09;234264;1174;115730;-69
2021/05/22 05:41:29;;;;;;;1.25;1.20;;;;;;;14.03;67.93;98927.55;232850;1174;115935;-68
2021/05/22 05:46:32;;;;;;;1.63;1.50;;;;;;;14.35;67.25;98937.80;232964;1174;115806;-69
2021/05/22 05:51:35;;;;;;;2.17;1.60;;;;;;;14.78;67.33;98948.76;234344;1174;116190;-68
2021/05/22 05:56:38;;;;;;;1.50;1.33;;;;;;;14.74;66.85;98928.94;233531;1175;116916;-69
2021/05/22 06:01:41;;;;;;;1.18;0.93;;;;;;;14.66;66.60;98898.17;234595;1174;118237;-67
2021/05/22 06:06:44;;;;;;;1.90;1.30;;;;;;;14.79;66.61;98902.07;234802;1174;115428;-66
2021/05/22 06:11:47;;;;;;;1.55;1.28;;;;;;;14.91;66.07;98913.23;235024;1174;115467;-66
2021/05/22 06:16:49;;;;;;;2.07;1.87;;;;;;;15.00;66.15;98906.15;234325;1174;115002;-67
2021/05/22 06:21:53;;;;;;;2.75;1.55;;;;;;;15.15;66.07;98899.84;234318;1174;115435;-68
2021/05/22 06:26:57;;;;;;;1.63;1.53;;;;;;;15.24;66.02;98903.51;233600;1174;114889;-67
2021/05/22 06:32:00;;;;;;;2.75;1.73;;;;;;;15.22;64.93;98900.31;233571;1174;115087;-66
2021/05/22 06:37:03;;;;;;;1.00;0.90;;;;;;;15.10;65.09;98906.06;233549;1174;115498;-68
2021/05/22 06:42:07;;;;;;;0.88;0.88;;;;;;;15.08;65.70;98900.17;233046;1174;115625;-68
2021/05/22 06:47:10;;;;;;;3.37;1.63;;;;;;;15.08;65.52;98908.22;233821;1174;115850;-63
2021/05/22 06:52:13;;;;;;;1.95;1.30;;;;;;;14.97;65.33;98893.33;232871;1174;115719;-66
2021/05/22 06:57:18;;;;;;;4.00;1.50;;;;;;;14.90;65.72;98908.95;233291;1174;114739;-68
2021/05/22 07:02:22;;;;;;;2.50;0.90;;;;;;;14.87;65.38;98917.56;233361;1171;116945;-68
2021/05/22 07:07:26;;;;;;;1.93;1.80;;;;;;;14.74;65.48;98918.20;232632;1174;205894;-65
2021/05/22 07:12:29;;;;;;;1.67;1.40;;;;;;;14.74;65.40;98919.01;232739;1175;115966;-66
2021/05/22 07:17:34;;;;;;;1.27;0.97;;;;;;;14.77;65.43;98925.70;232655;1177;116831;-65
2021/05/22 07:22:37;;;;;;;3.35;1.78;;;;;;;14.70;65.51;98926.02;232628;1176;116028;-65
2021/05/22 07:27:41;;;;;;;3.23;1.50;;;;;;;14.63;65.75;98930.92;233116;1170;116759;-67
2021/05/22 07:32:45;;;;;;;4.00;1.30;;;;;;;14.53;66.26;98948.96;233676;1176;117026;-68
2021/05/22 07:37:49;;;;;;;1.35;1.25;;;;;;;14.51;66.43;98948.44;233093;1174;115924;-65
2021/05/22 07:42:53;;;;;;;3.65;1.38;;;;;;;14.44;66.77;98944.19;232540;1174;115739;-66
2021/05/22 07:47:56;;;;;;;1.78;1.43;;;;;;;14.29;67.45;98941.59;233223;1174;116742;-66
2021/05/22 07:53:00;;;;;;;2.50;1.73;;;;;;;14.10;67.15;98944.09;233868;1174;115815;-67
2021/05/22 07:58:03;;;;;;;3.95;1.25;;;;;;;14.07;68.02;98959.92;233863;1174;115534;-66
2021/05/22 08:03:05;;;;;;;1.48;1.38;;;;;;;14.05;68.57;98954.88;233761;1176;116672;-68
2021/05/22 08:08:08;;;;;;;4.57;1.70;;;;;;;14.03;68.30;98948.98;234733;1176;121239;-66
2021/05/22 08:13:12;;;;;;;1.80;1.70;;;;;;;14.03;68.84;98951.66;235211;1174;116674;-63
2021/05/22 08:18:16;;;;;;;1.98;1.10;;;;;;;14.03;68.99;98965.06;235001;1174;117564;-65
2021/05/22 08:23:20;;;;;;;1.90;1.80;;;;;;;14.00;69.13;98964.81;233997;1174;116981;-67
2021/05/22 08:28:27;;;;;;;3.30;1.90;;;;;;;14.11;69.30;98958.30;234383;1176;116027;-67
2021/05/22 08:33:30;;;;;;;2.27;1.70;;;;;;;14.29;69.07;98970.28;232965;1174;116743;-67
2021/05/22 08:38:34;;;;;;;1.93;1.78;;;;;;;14.16;69.42;98969.80;232589;1174;115759;-66
2021/05/22 08:43:40;;;;;;;2.40;2.20;;;;;;;14.18;69.58;98974.89;233625;1174;116158;-68
2021/05/22 08:48:43;;;;;;;1.70;1.60;;;;;;;14.23;68.87;98974.86;232897;1174;116945;-67
2021/05/22 08:53:48;;;;;;;2.37;2.10;;;;;;;14.21;69.61;98986.94;232587;1174;116558;-68
2021/05/22 08:58:53;;;;;;;2.18;2.00;;;;;;;14.16;69.67;98983.20;232412;1175;115555;-68
2021/05/22 09:03:57;;;;;;;2.38;1.93;;;;;;;14.18;69.81;98992.84;232871;1174;116009;-68
2021/05/22 09:09:05;;;;;;;2.08;1.98;;;;;;;14.22;70.09;98989.34;232689;1174;116280;-69
2021/05/22 09:14:09;;;;;;;5.38;2.83;;;;;;;14.15;69.99;98988.84;232837;1174;115852;-68
2021/05/22 09:19:11;;;;;;;4.07;2.13;;;;;;;14.10;69.88;98992.34;232684;1174;116067;-66
2021/05/22 09:24:15;;;;;;;3.60;3.10;;;;;;;14.12;70.23;98974.11;232574;1174;116109;-66
2021/05/22 09:29:27;;;;;;;4.37;2.67;;;;;;;14.15;70.12;98972.75;232444;1174;116139;-69
2021/05/22 09:34:30;;;;;;;1.90;1.75;;;;;;;14.21;70.48;98960.94;232398;1176;116048;-69
2021/05/22 09:39:47;;;;;;;2.40;2.23;;;;;;;14.28;70.41;98939.19;233044;1174;115762;-69
2021/05/22 09:44:50;;;;;;;2.08;1.60;;;;;;;14.57;70.62;98933.91;233669;1174;115726;-66
2021/05/22 09:49:54;;;;;;;3.85;1.90;;;;;;;14.99;69.86;98934.06;233224;1174;116356;-68
2021/05/22 09:54:58;;;;;;;1.75;1.63;;;;;;;15.40;69.99;98928.29;232558;1174;116104;-66
2021/05/22 10:00:11;;;;;;;2.98;2.68;;;;;;;15.57;69.58;98917.14;233392;1174;115806;-70
2021/05/22 10:05:25;;;;;;;2.33;2.03;;;;;;;15.74;69.08;98926.31;232765;1174;117085;-69
2021/05/22 10:10:45;;;;;;;3.23;2.17;;;;;;;15.68;68.86;98926.65;235019;1176;117236;-65
2021/05/22 10:15:56;;;;;;;3.45;2.10;;;;;;;15.67;69.02;98933.91;234410;1174;117275;-64
2021/05/22 10:21:03;;;;;;;2.60;2.20;;;;;;;15.62;68.39;98931.28;232599;1174;117437;-67
2021/05/22 10:26:05;;;;;;;2.15;1.95;;;;;;;15.58;68.09;98932.97;233590;1175;115929;-64
2021/05/22 10:31:09;;;;;;;2.38;2.18;;;;;;;15.51;67.67;98924.42;232693;1175;115919;-69
2021/05/22 10:36:53;;;;;;;2.50;2.28;;;;;;;15.37;68.51;98924.30;232492;1175;116588;-68
2021/05/22 10:41:56;;;;;;;2.58;2.20;;;;;;;15.26;67.88;98911.28;232343;1176;116120;-67
2021/05/22 10:47:10;;;;;;;2.73;2.45;;;;;;;15.15;68.34;98911.38;232937;1174;117160;-66
2021/05/22 10:52:17;;;;;;;2.20;2.10;;;;;;;14.92;67.79;98924.77;233320;1174;116027;-67
2021/05/22 10:57:21;;;;;;;9.05;2.50;;;;;;;14.87;68.60;98919.45;232911;1174;116015;-69
2021/05/22 11:02:42;;;;;;;2.55;2.28;;;;;;;14.82;68.69;98915.72;233248;1174;116059;-68
2021/05/22 11:07:46;;;;;;;2.45;2.25;;;;;;;14.70;68.48;98919.84;233009;1174;115322;-68
2021/05/22 11:12:50;;;;;;;2.80;2.23;;;;;;;14.58;68.46;98928.27;232662;1174;116189;-67
2021/05/22 11:17:54;;;;;;;6.40;2.30;;;;;;;14.54;68.89;98929.91;232550;1174;119148;-67
2021/05/22 11:23:00;;;;;;;2.20;2.00;;;;;;;14.56;69.01;98935.00;232445;1174;116840;-66
2021/05/22 11:28:05;;;;;;;2.60;2.25;;;;;;;14.53;69.11;98935.55;232814;1170;116430;-66
2021/05/22 11:33:10;;;;;;;2.20;1.83;;;;;;;14.53;69.31;98935.55;232915;1174;116013;-67
2021/05/22 11:38:17;;;;;;;2.33;2.23;;;;;;;14.45;69.03;98937.74;233427;1174;116565;-67
2021/05/22 11:43:31;;;;;;;4.60;3.10;;;;;;;14.42;69.91;98935.62;233045;1174;116267;-67
2021/05/22 11:48:41;;;;;;;3.85;2.75;;;;;;;14.55;70.15;98938.76;234661;1170;115664;-66
2021/05/22 11:53:51;;;;;;;2.40;2.15;;;;;;;14.63;70.03;98935.48;234460;1174;118876;-68
2021/05/22 11:58:58;;;;;;;2.60;2.40;;;;;;;14.67;69.53;98937.33;234848;1173;115265;-66
2021/05/22 12:04:12;;;;;;;2.08;1.95;;;;;;;14.62;69.49;98934.69;235165;1174;116660;-66
2021/05/22 12:09:22;;;;;;;4.80;2.80;;;;;;;14.53;69.51;98936.36;234958;1174;115537;-66
2021/05/22 12:14:36;;;;;;;3.23;2.93;;;;;;;14.55;69.82;98938.76;235153;1174;115015;-66
2021/05/22 12:19:42;;;;;;;1.93;1.83;;;;;;;14.50;69.49;98942.27;234122;1174;115879;-68
2021/05/22 12:24:46;;;;;;;1.93;1.75;;;;;;;14.44;69.63;98922.73;232898;1174;116270;-68
2021/05/22 12:29:54;;;;;;;2.15;1.95;;;;;;;14.52;70.34;98912.50;232279;1174;116230;-69
2021/05/22 12:35:00;;;;;;;2.40;2.20;;;;;;;14.54;69.74;98907.66;232482;1174;116872;-68
2021/05/22 12:40:07;;;;;;;4.63;1.65;;;;;;;14.57;69.54;98893.69;233443;1167;117196;-66
2021/05/22 12:45:16;;;;;;;1.60;1.50;;;;;;;14.65;69.95;98885.84;233039;1174;116769;-68
2021/05/22 12:50:31;;;;;;;2.87;2.30;;;;;;;14.80;70.70;98900.98;234012;1174;116261;-68
2021/05/22 12:55:37;;;;;;;3.30;2.55;;;;;;;14.81;70.10;98903.39;233193;1175;116562;-67
2021/05/22 13:00:40;;;;;;;2.65;2.45;;;;;;;14.78;69.62;98906.63;232912;1174;116044;-68
2021/05/22 13:05:48;;;;;;;4.38;1.85;;;;;;;14.81;69.82;98895.34;233082;1174;118796;-66
2021/05/22 13:10:51;;;;;;;1.00;1.00;;;;;;;14.82;69.56;98896.94;232582;1174;116531;-66
2021/05/22 13:15:54;;;;;;;3.73;2.45;;;;;;;14.69;69.53;98891.42;233060;1174;116543;-67
2021/05/22 13:21:05;;;;;;;2.30;2.20;;;;;;;14.69;69.24;98886.05;233498;1174;115720;-67
2021/05/22 13:26:23;;;;;;;2.78;2.48;;;;;;;14.71;69.51;98878.52;233537;1174;115437;-70
2021/05/22 13:31:31;;;;;;;2.30;2.20;;;;;;;14.80;69.54;98879.52;232600;1174;115412;-67
2021/05/22 13:36:36;;;;;;;3.80;3.10;;;;;;;14.97;69.19;98879.91;232841;1176;117556;-69
2021/05/22 13:41:42;;;;;;;2.10;2.00;;;;;;;15.16;69.32;98885.34;232662;1174;116253;-66
2021/05/22 13:46:47;;;;;;;1.67;1.57;;;;;;;15.44;68.80;98891.72;232476;1176;117083;-70
2021/05/22 13:51:50;;;;;;;1.73;1.63;;;;;;;15.47;68.08;98889.27;232274;1174;116665;-70
2021/05/22 13:56:56;;;;;;;2.45;2.25;;;;;;;15.66;68.14;98893.90;232266;1174;116396;-70
2021/05/22 14:01:59;;;;;;;2.23;2.03;;;;;;;15.85;67.74;98893.94;234188;1174;115604;-68
2021/05/22 14:07:02;;;;;;;2.45;2.30;;;;;;;16.07;67.91;98878.83;233879;1174;116313;-68
2021/05/22 14:12:05;;;;;;;5.55;2.48;;;;;;;16.54;67.22;98878.89;233460;1174;116137;-67
2021/05/22 14:17:07;;;;;;;2.25;2.10;;;;;;;16.56;66.96;98890.96;235169;1174;115775;-68
2021/05/22 14:22:11;;;;;;;7.83;1.75;;;;;;;16.28;65.31;98951.91;234563;1174;114953;-65
2021/05/22 14:27:14;;;;;;;1.10;1.10;;;;;;;15.40;63.46;98957.84;234651;1174;115108;-68
2021/05/22 14:32:19;;;;;;;0.85;0.85;;;;;;;14.53;62.44;98991.88;234082;1174;115806;-68
2021/05/22 14:37:21;;;;;;;1.85;0.58;;;;;;;13.62;63.92;98995.75;233597;1176;115395;-69
2021/05/22 14:42:25;;;;;;;16.85;0.85;;;;;;;12.76;64.70;98967.22;233174;1174;116351;-69
2021/05/22 14:47:29;;;;;;;1.08;0.65;;;;;;;12.26;66.31;98938.55;234119;1174;115469;-69
2021/05/22 14:52:32;;;;;;;4.80;0.20;;;;;;;11.87;66.47;98943.55;233681;1174;117928;-70
2021/05/22 14:57:39;;;;;;;0.45;0.45;;;;;;;11.54;67.47;98945.53;233914;1174;115139;-69
2021/05/22 15:02:42;;;;;;;;;;;;;;;11.50;68.72;98928.42;232471;1174;115976;-67
2021/05/22 15:07:46;;;;;;;1.00;0.85;;;;;;;11.57;69.18;98912.98;233222;1174;103066;-66
2021/05/22 15:12:49;;;;;;;2.47;1.17;;;;;;;11.76;69.35;98906.13;233144;1174;116797;-70
2021/05/22 15:17:52;;;;;;;1.97;1.30;;;;;;;12.19;70.09;98909.44;232754;1176;117297;-70
2021/05/22 15:22:54;;;;;;;1.23;1.15;;;;;;;12.63;70.45;98916.94;232749;1174;116428;-70
2021/05/22 15:27:58;;;;;;;0.40;0.40;;;;;;;12.81;69.95;98913.73;232468;1174;117597;-69
2021/05/22 15:33:01;;;;;;;3.50;0.95;;;;;;;12.78;69.66;98906.25;232485;1174;115808;-68
2021/05/22 15:38:04;;;;;;;1.45;0.90;;;;;;;13.01;70.13;98905.67;232756;1174;115230;-69
2021/05/22 15:43:08;;;;;;;0.97;0.83;;;;;;;13.20;70.59;98897.08;232457;1174;115673;-67
2021/05/22 15:59:12;;;;;;;1.73;0.80;;;;;;;13.51;70.30;98913.84;233749;1174;117504;-66
2021/05/22 16:09:34;;;;;;;2.70;1.60;;;;;;;13.18;70.38;98905.38;232485;1174;115333;-68
2021/05/22 16:14:38;;;;;;;1.85;1.50;;;;;;;13.04;69.87;98915.83;234140;1174;115554;-68
2021/05/22 16:19:42;;;;;;;3.30;1.20;;;;;;;12.97;71.01;98936.70;233142;1170;115066;-67
2021/05/22 16:24:46;;;;;;;1.83;0.73;;;;;;;12.86;70.93;98951.14;234944;1174;115059;-66
2021/05/22 16:29:50;;;;;;;1.30;1.20;;;;;;;12.60;70.47;98978.96;234663;1174;115635;-68
2021/05/22 16:34:57;;;;;;;0.70;0.70;;;;;;;12.39;70.28;98976.27;232945;1174;115449;-67
2021/05/22 16:40:00;;;;;;;2.65;1.00;;;;;;;12.26;70.72;98951.91;232790;1174;115883;-67
2021/05/22 16:45:07;;;;;;;1.30;1.10;;;;;;;12.06;70.71;98920.63;233988;1174;115428;-68
2021/05/22 16:50:17;;;;;;;1.33;1.23;;;;;;;11.92;70.93;98935.56;232844;1174;115680;-66
2021/05/22 16:55:20;;;;;;;2.73;1.55;;;;;;;11.89;70.86;98952.91;232791;1174;115088;-67
2021/05/22 17:00:24;;;;;;;0.85;0.53;;;;;;;11.91;70.79;98939.30;233420;1167;115747;-67
2021/05/22 17:05:28;;;;;;;12.85;1.70;;;;;;;11.77;71.86;98929.09;232811;1170;115254;-68
2021/05/22 17:10:31;;;;;;;4.73;1.93;;;;;;;11.83;71.74;98945.94;233166;1174;115688;-67
2021/05/22 17:15:34;;;;;;;3.77;1.57;;;;;;;11.91;71.71;98944.64;232930;1174;116008;-68
2021/05/22 17:20:37;;;;;;;5.40;1.73;;;;;;;11.97;72.31;98946.23;232803;1175;116512;-68
2021/05/22 17:25:40;;;;;;;1.05;0.90;;;;;;;12.11;72.75;98953.50;232395;1174;115979;-67
2021/05/22 17:30:44;;;;;;;2.43;1.50;;;;;;;12.28;72.68;98952.45;232630;1168;115525;-65
2021/05/22 17:35:48;;;;;;;6.17;2.07;;;;;;;12.28;72.26;98953.25;232848;1174;117132;-67
2021/05/22 17:40:51;;;;;;;3.77;2.50;;;;;;;12.14;72.23;98954.84;232291;1174;115740;-68
2021/05/22 17:45:55;;;;;;;2.83;2.13;;;;;;;11.98;72.18;98964.67;232539;1174;115555;-67
2021/05/22 17:51:00;;;;;;;2.20;2.00;;;;;;;11.85;72.16;98961.70;233257;1174;116201;-67
2021/05/22 17:56:05;;;;;;;1.73;1.40;;;;;;;11.73;72.34;98964.55;232329;1174;115617;-67
2021/05/22 18:01:11;;;;;;;2.33;1.77;;;;;;;11.65;72.34;98976.52;232689;1174;115580;-67
2021/05/22 18:06:18;;;;;;;2.40;2.20;;;;;;;11.48;72.64;98971.38;233564;1174;116203;-66
2021/05/22 18:11:21;;;;;;;1.45;1.30;;;;;;;11.41;72.66;98980.67;233302;1170;119593;-66
2021/05/22 18:16:24;;;;;;;3.50;2.00;;;;;;;11.26;72.39;98985.94;232264;1175;116591;-68
2021/05/22 18:21:28;;;;;;;2.30;2.10;;;;;;;11.04;72.43;98984.16;233923;1174;115943;-66
2021/05/22 18:26:33;;;;;;;1.80;1.68;;;;;;;10.81;72.78;99000.52;233867;1174;116280;-67
2021/05/22 18:31:36;;;;;;;2.93;2.73;;;;;;;10.73;73.16;99009.78;235136;1174;116780;-66
2021/05/22 18:36:39;;;;;;;7.23;2.98;;;;;;;10.67;73.53;99021.48;234957;1174;115818;-69
2021/05/22 18:41:47;;;;;;;4.17;2.37;;;;;;;10.61;73.67;99027.81;234747;1176;115947;-66
2021/05/22 18:46:53;;;;;;;4.03;2.93;;;;;;;10.51;73.27;99032.23;232744;1174;116276;-66
2021/05/22 18:51:57;;;;;;;4.35;3.23;;;;;;;10.55;73.76;99039.47;233002;1174;116157;-67
2021/05/22 18:57:01;;;;;;;3.10;2.73;;;;;;;10.49;73.90;99055.65;232813;1176;115849;-67
2021/05/22 19:02:06;;;;;;;5.20;3.40;;;;;;;10.42;73.89;99061.97;232607;1174;117852;-67
2021/05/22 19:07:10;;;;;;;4.43;2.93;;;;;;;10.34;73.88;99075.76;233984;1174;116117;-69
2021/05/22 19:12:15;;;;;;;6.20;4.18;;;;;;;10.25;73.79;99066.59;232437;1174;117434;-67
2021/05/22 19:17:18;;;;;;;13.35;5.98;;;;;;;10.20;74.14;99076.38;233580;1174;116212;-66
2021/05/22 19:22:22;;;;;;;5.10;3.90;;;;;;;10.12;74.37;99081.04;233353;1174;116742;-67
2021/05/22 19:27:26;;;;;;;5.90;4.07;;;;;;;10.01;74.05;99073.99;232680;1174;140476;-66
2021/05/22 19:32:30;;;;;;;5.80;3.35;;;;;;;10.01;74.59;99086.50;233212;1174;115520;-67
2021/05/22 19:37:34;;;;;;;9.55;5.40;;;;;;;9.91;74.64;99089.02;233093;1174;115009;-67
2021/05/22 19:42:41;;;;;;;5.80;3.58;;;;;;;9.87;75.04;99101.20;232680;1174;115305;-67
2021/05/22 19:47:45;;;;;;;2.78;2.28;;;;;;;9.88;74.54;99105.48;232566;1173;115523;-68
2021/05/22 19:52:49;;;;;;;5.18;3.63;;;;;;;9.89;74.69;99110.56;233436;1174;115667;-70
2021/05/22 19:57:55;;;;;;;6.80;4.30;;;;;;;9.85;74.98;99103.30;233450;1174;115493;-68
2021/05/22 20:02:58;;;;;;;7.33;3.97;;;;;;;9.84;75.20;99102.50;232887;1174;115378;-69
2021/05/22 20:08:01;;;;;;;5.00;3.23;;;;;;;9.87;74.98;99111.85;234110;1174;115637;-68
2021/05/22 20:13:04;;;;;;;4.08;2.65;;;;;;;9.89;75.06;99115.88;233843;1174;115442;-69
2021/05/22 20:18:09;;;;;;;3.10;2.60;;;;;;;9.87;75.56;99117.18;233985;1174;115768;-69
2021/05/22 20:23:13;;;;;;;7.93;2.93;;;;;;;9.94;75.64;99125.80;234179;1174;115209;-67
2021/05/22 20:28:16;;;;;;;3.93;3.38;;;;;;;9.90;75.30;99132.66;233918;1174;116175;-69
2021/05/22 20:33:20;;;;;;;5.28;3.40;;;;;;;9.89;74.42;99141.70;235061;1174;115571;-67
2021/05/22 20:38:24;;;;;;;10.98;3.45;;;;;;;9.91;75.50;99147.59;234861;1176;115393;-66
2021/05/22 20:43:28;;;;;;;5.05;2.88;;;;;;;10.00;75.26;99144.27;232551;1174;115688;-67
2021/05/22 20:48:33;;;;;;;8.30;3.80;;;;;;;10.06;75.28;99151.28;233865;1174;114754;-67
2021/05/22 20:53:36;;;;;;;3.95;2.88;;;;;;;10.08;74.99;99151.85;234376;1174;114977;-67
2021/05/22 20:58:40;;;;;;;4.07;2.40;;;;;;;10.03;74.72;99165.09;233279;1172;116084;-68
2021/05/22 21:03:47;;;;;;;7.45;3.55;;;;;;;10.00;74.56;99175.42;233868;1174;114833;-70
2021/05/22 21:08:54;;;;;;;5.10;2.95;;;;;;;9.92;74.76;99175.83;233288;1174;116264;-69
2021/05/22 21:13:58;;;;;;;8.03;3.90;;;;;;;9.82;74.04;99188.97;233285;1174;115069;-68
2021/05/22 21:19:02;;;;;;;3.85;2.53;;;;;;;9.67;74.94;99195.69;232418;1174;115260;-68
2021/05/22 21:24:05;;;;;;;10.05;3.25;;;;;;;9.60;74.33;99194.22;232568;1174;115673;-67
2021/05/22 21:29:09;;;;;;;4.73;2.87;;;;;;;9.59;75.28;99200.59;232442;1174;115953;-68
2021/05/22 21:34:13;;;;;;;4.83;2.80;;;;;;;9.53;75.21;99201.55;232497;1174;115281;-68
2021/05/22 21:39:16;;;;;;;6.87;2.50;;;;;;;9.51;75.19;99203.64;232784;1174;115176;-68
2021/05/22 21:44:21;;;;;;;2.68;2.48;;;;;;;9.53;75.59;99212.19;232564;1174;115339;-68
2021/05/22 21:49:25;;;;;;;4.00;2.73;;;;;;;9.56;75.20;99207.20;232573;1174;114576;-69
2021/05/22 21:54:29;;;;;;;6.40;3.10;;;;;;;9.57;75.66;99205.34;232822;1173;116263;-70
2021/05/22 21:59:34;;;;;;;7.20;3.33;;;;;;;9.55;75.22;99200.27;232637;1174;115181;-69
2021/05/22 22:04:38;;;;;;;3.40;2.93;;;;;;;9.56;75.58;99214.38;233897;1172;116167;-69
2021/05/22 22:09:42;;;;;;;11.37;3.57;;;;;;;9.55;74.96;99205.58;233357;1174;114769;-68
2021/05/22 22:14:46;;;;;;;5.75;2.50;;;;;;;9.47;74.74;99203.34;232802;1174;115596;-68
2021/05/22 22:19:51;;;;;;;5.58;2.80;;;;;;;9.45;75.74;99214.22;232843;1174;114961;-68
2021/05/22 22:24:55;;;;;;;5.95;2.83;;;;;;;9.42;75.07;99221.88;234026;1174;115414;-69
2021/05/22 22:29:59;;;;;;;5.20;2.55;;;;;;;9.36;75.51;99225.48;232973;1174;114829;-69
2021/05/22 22:35:10;;;;;;;7.03;3.13;;;;;;;9.29;75.31;99235.45;235077;1174;116184;-69
2021/05/22 22:40:14;;;;;;;5.70;3.60;;;;;;;9.30;75.39;99235.22;235099;1174;115669;-68
2021/05/22 22:45:18;;;;;;;6.23;2.60;;;;;;;9.31;75.84;99228.85;234589;1173;114772;-67
2021/05/22 22:50:21;;;;;;;6.33;3.07;;;;;;;9.30;75.07;99237.07;233461;1174;115340;-67
2021/05/22 22:55:24;;;;;;;4.40;2.67;;;;;;;9.32;76.11;99238.45;232842;1174;115530;-67
2021/05/22 23:00:27;;;;;;;3.17;2.17;;;;;;;9.33;76.07;99249.89;232535;1174;114658;-67
2021/05/22 23:05:31;;;;;;;6.27;4.00;;;;;;;9.39;75.98;99255.08;232507;1174;115242;-67
2021/05/22 23:10:36;;;;;;;3.60;2.68;;;;;;;9.45;75.59;99251.47;232898;1174;114928;-67
2021/05/22 23:15:39;;;;;;;5.48;2.40;;;;;;;9.49;75.95;99251.77;232391;1174;115250;-67
2021/05/22 23:20:42;;;;;;;5.95;2.50;;;;;;;9.47;76.23;99229.95;232689;1174;115845;-67
2021/05/22 23:25:45;;;;;;;6.88;3.13;;;;;;;9.50;75.58;99245.41;232605;1167;115632;-70
2021/05/22 23:30:48;;;;;;;4.00;3.28;;;;;;;9.52;75.84;99253.15;232800;1174;115209;-69
2021/05/22 23:35:52;;;;;;;9.47;3.30;;;;;;;9.50;75.79;99250.73;232696;1170;116175;-68
2021/05/22 23:40:55;;;;;;;7.68;2.43;;;;;;;9.56;75.51;99256.95;233246;1174;115926;-69